createdAt,value
2023-01-11T00:00:47.775Z,8.40
2023-01-11T00:01:47.747Z,8.37
2023-01-11T00:02:47.740Z,8.39
2023-01-11T00:03:47.734Z,8.45
2023-01-11T00:04:47.797Z,8.49
2023-01-11T00:05:47.709Z,8.49
2023-01-11T00:06:47.731Z,8.50
2023-01-11T00:07:47.686Z,8.50
2023-01-11T00:08:47.686Z,8.50
2023-01-11T00:09:47.674Z,8.52
2023-01-11T00:10:47.652Z,8.52
2023-01-11T00:11:47.658Z,8.54
2023-01-11T00:12:47.634Z,8.57
2023-01-11T00:13:47.620Z,8.57
2023-01-11T00:14:47.611Z,8.57
2023-01-11T00:15:47.628Z,8.57
2023-01-11T00:16:47.594Z,8.55
2023-01-11T00:17:47.580Z,8.55
2023-01-11T00:18:47.576Z,8.55
2023-01-11T00:19:47.548Z,8.57
2023-01-11T00:20:47.540Z,8.61
2023-01-11T00:21:47.525Z,8.67
2023-01-11T00:22:47.519Z,8.68
2023-01-11T00:23:47.518Z,8.67
2023-01-11T00:24:47.497Z,8.65
2023-01-11T00:25:47.488Z,8.67
2023-01-11T00:26:47.476Z,8.67
2023-01-11T00:27:47.460Z,8.68
2023-01-11T00:28:47.461Z,8.68
2023-01-11T00:29:47.438Z,8.67
2023-01-11T00:30:47.433Z,8.65
2023-01-11T00:31:47.415Z,8.63
2023-01-11T00:32:47.410Z,8.61
2023-01-11T00:33:47.412Z,8.63
2023-01-11T00:34:47.389Z,8.63
2023-01-11T00:35:47.369Z,8.64
2023-01-11T00:36:47.373Z,8.64
2023-01-11T00:37:47.355Z,8.67
2023-01-11T00:38:47.355Z,8.71
2023-01-11T00:39:47.333Z,8.73
2023-01-11T00:40:47.333Z,8.75
2023-01-11T00:41:47.316Z,8.78
2023-01-11T00:42:47.306Z,8.78
2023-01-11T00:43:47.321Z,8.79
2023-01-11T00:44:47.278Z,8.79
2023-01-11T00:45:47.296Z,8.80
2023-01-11T00:46:47.257Z,8.82
2023-01-11T00:47:47.240Z,8.80
2023-01-11T00:48:47.256Z,8.80
2023-01-11T00:49:47.224Z,8.82
2023-01-11T00:50:47.217Z,8.82
2023-01-11T00:51:47.199Z,8.83
2023-01-11T00:52:47.197Z,8.83
2023-01-11T00:53:47.220Z,8.83
2023-01-11T00:54:47.168Z,8.83
2023-01-11T00:55:47.153Z,8.85
2023-01-11T00:56:47.157Z,8.86
2023-01-11T00:57:47.138Z,8.88
2023-01-11T00:58:47.141Z,8.86
2023-01-11T00:59:47.116Z,8.88
2023-01-11T01:00:47.104Z,8.88
2023-01-11T01:01:47.087Z,8.91
2023-01-11T01:02:47.134Z,8.93
2023-01-11T01:03:47.068Z,8.93
2023-01-11T01:04:47.072Z,8.89
2023-01-11T01:05:47.043Z,8.91
2023-01-11T01:06:47.108Z,8.93
2023-01-11T01:07:47.028Z,8.94
2023-01-11T01:08:47.019Z,8.94
2023-01-11T01:09:47.013Z,8.94
2023-01-11T01:10:46.995Z,8.94
2023-01-11T01:11:46.978Z,8.96
2023-01-11T01:12:46.970Z,8.97
2023-01-11T01:13:46.957Z,8.97
2023-01-11T01:14:46.960Z,8.98
2023-01-11T01:15:46.975Z,8.98
2023-01-11T01:16:46.927Z,8.98
2023-01-11T01:17:46.919Z,8.97
2023-01-11T01:18:46.908Z,8.98
2023-01-11T01:19:46.901Z,9.00
2023-01-11T01:20:46.882Z,9.01
2023-01-11T01:21:46.868Z,9.03
2023-01-11T01:22:46.872Z,9.04
2023-01-11T01:23:46.862Z,9.06
2023-01-11T01:24:46.853Z,9.04
2023-01-11T01:25:46.839Z,9.06
2023-01-11T01:26:46.819Z,9.10
2023-01-11T01:27:46.801Z,9.12
2023-01-11T01:28:46.812Z,9.15
2023-01-11T01:29:46.790Z,9.17
2023-01-11T01:30:46.773Z,9.17
2023-01-11T01:31:46.757Z,9.20
2023-01-11T01:32:46.754Z,9.17
2023-01-11T01:33:46.738Z,9.17
2023-01-11T01:34:46.748Z,9.22
2023-01-11T01:35:46.713Z,9.22
2023-01-11T01:36:46.707Z,9.23
2023-01-11T01:37:46.696Z,9.20
2023-01-11T01:38:46.690Z,9.23
2023-01-11T01:39:46.679Z,9.24
2023-01-11T01:40:46.676Z,9.24
2023-01-11T01:41:46.649Z,9.30
2023-01-11T01:42:46.639Z,9.31
2023-01-11T01:43:47.668Z,9.30
2023-01-11T01:44:46.632Z,9.27
2023-01-11T01:45:46.609Z,9.26
2023-01-11T01:46:46.595Z,9.24
2023-01-11T01:47:46.598Z,9.26
2023-01-11T01:48:46.570Z,9.26
2023-01-11T01:49:46.608Z,9.26
2023-01-11T01:50:46.552Z,9.31
2023-01-11T01:51:46.571Z,9.32
2023-01-11T01:52:46.529Z,9.34
2023-01-11T01:53:46.520Z,9.37
2023-01-11T01:54:46.513Z,9.34
2023-01-11T01:55:46.509Z,9.34
2023-01-11T01:56:46.498Z,9.35
2023-01-11T01:57:46.476Z,9.34
2023-01-11T01:58:46.469Z,9.32
2023-01-11T01:59:46.458Z,9.34
2023-01-11T02:00:46.463Z,9.35
2023-01-11T02:01:46.534Z,9.35
2023-01-11T02:02:46.439Z,9.35
2023-01-11T02:03:46.410Z,9.34
2023-01-11T02:04:46.401Z,9.38
2023-01-11T02:05:46.407Z,9.38
2023-01-11T02:06:46.418Z,9.40
2023-01-11T02:07:46.382Z,9.37
2023-01-11T02:08:46.352Z,9.41
2023-01-11T02:09:46.353Z,9.41
2023-01-11T02:10:46.354Z,9.42
2023-01-11T02:11:46.322Z,9.45
2023-01-11T02:12:46.318Z,9.49
2023-01-11T02:13:46.386Z,9.45
2023-01-11T02:14:46.324Z,9.44
2023-01-11T02:15:46.296Z,9.42
2023-01-11T02:16:46.268Z,9.48
2023-01-11T02:17:46.263Z,9.53
2023-01-11T02:18:46.250Z,9.55
2023-01-11T02:19:46.230Z,9.53
2023-01-11T02:20:46.245Z,9.52
2023-01-11T02:21:46.216Z,9.52
2023-01-11T02:22:46.206Z,9.50
2023-01-11T02:23:46.192Z,9.53
2023-01-11T02:24:46.282Z,9.53
2023-01-11T02:25:46.177Z,9.53
2023-01-11T02:26:46.158Z,9.53
2023-01-11T02:27:46.145Z,9.52
2023-01-11T02:28:46.136Z,9.52
2023-01-11T02:29:46.138Z,9.53
2023-01-11T02:30:46.148Z,9.59
2023-01-11T02:31:46.102Z,9.62
2023-01-11T02:32:46.101Z,9.65
2023-01-11T02:33:46.143Z,9.70
2023-01-11T02:34:46.095Z,9.70
2023-01-11T02:35:46.067Z,9.67
2023-01-11T02:36:46.070Z,9.62
2023-01-11T02:37:46.036Z,9.58
2023-01-11T02:38:46.034Z,9.53
2023-01-11T02:39:46.013Z,9.50
2023-01-11T02:40:46.015Z,9.50
2023-01-11T02:41:45.992Z,9.45
2023-01-11T02:42:45.985Z,9.45
2023-01-11T02:43:45.978Z,9.49
2023-01-11T02:44:46.023Z,9.49
2023-01-11T02:45:45.955Z,9.42
2023-01-11T02:46:46.097Z,9.41
2023-01-11T02:47:45.931Z,9.41
2023-01-11T02:48:45.931Z,9.42
2023-01-11T02:49:45.901Z,9.41
2023-01-11T02:50:45.909Z,9.41
2023-01-11T02:51:45.898Z,9.41
2023-01-11T02:52:45.873Z,9.42
2023-01-11T02:53:45.872Z,9.40
2023-01-11T02:54:45.861Z,9.42
2023-01-11T02:55:45.848Z,9.44
2023-01-11T02:56:45.830Z,9.48
2023-01-11T02:57:45.878Z,9.49
2023-01-11T02:58:45.813Z,9.49
2023-01-11T02:59:45.797Z,9.49
2023-01-11T03:00:45.797Z,9.45
2023-01-11T03:01:45.846Z,9.48
2023-01-11T03:02:45.811Z,9.45
2023-01-11T03:03:45.750Z,9.50
2023-01-11T03:04:45.742Z,9.55
2023-01-11T03:05:45.738Z,9.58
2023-01-11T03:06:45.778Z,9.58
2023-01-11T03:07:45.720Z,9.59
2023-01-11T03:08:45.714Z,9.59
2023-01-11T03:09:45.684Z,9.55
2023-01-11T03:10:45.686Z,9.55
2023-01-11T03:11:45.657Z,9.55
2023-01-11T03:12:45.655Z,9.53
2023-01-11T03:13:45.641Z,9.56
2023-01-11T03:14:45.629Z,9.60
2023-01-11T03:15:45.703Z,9.62
2023-01-11T03:16:45.618Z,9.65
2023-01-11T03:17:45.592Z,9.63
2023-01-11T03:18:45.602Z,9.62
2023-01-11T03:19:45.574Z,9.59
2023-01-11T03:20:45.569Z,9.55
2023-01-11T03:21:45.585Z,9.50
2023-01-11T03:22:45.547Z,9.50
2023-01-11T03:23:45.527Z,9.49
2023-01-11T03:24:45.520Z,9.50
2023-01-11T03:25:45.505Z,9.50
2023-01-11T03:26:45.521Z,9.50
2023-01-11T03:27:45.483Z,9.45
2023-01-11T03:28:45.479Z,9.44
2023-01-11T03:29:45.459Z,9.45
2023-01-11T03:30:45.455Z,9.45
2023-01-11T03:31:45.546Z,9.48
2023-01-11T03:32:45.430Z,9.50
2023-01-11T03:33:45.422Z,9.50
2023-01-11T03:34:45.412Z,9.55
2023-01-11T03:35:45.400Z,9.53
2023-01-11T03:36:45.399Z,9.50
2023-01-11T03:37:45.380Z,9.48
2023-01-11T03:38:45.365Z,9.42
2023-01-11T03:39:45.351Z,9.44
2023-01-11T03:40:45.342Z,9.44
2023-01-11T03:41:45.347Z,9.41
2023-01-11T03:42:45.322Z,9.42
2023-01-11T03:43:45.316Z,9.38
2023-01-11T03:44:45.301Z,9.37
2023-01-11T03:45:45.296Z,9.34
2023-01-11T03:46:45.365Z,9.32
2023-01-11T03:47:45.263Z,9.32
2023-01-11T03:48:45.257Z,9.34
2023-01-11T03:49:45.248Z,9.34
2023-01-11T03:50:45.239Z,9.32
2023-01-11T03:51:45.232Z,9.32
2023-01-11T03:52:45.218Z,9.31
2023-01-11T03:53:45.195Z,9.34
2023-01-11T03:54:45.187Z,9.35
2023-01-11T03:55:45.188Z,9.34
2023-01-11T03:56:45.179Z,9.37
2023-01-11T03:57:45.152Z,9.35
2023-01-11T03:58:45.143Z,9.35
2023-01-11T03:59:45.135Z,9.35
2023-01-11T04:00:45.198Z,9.37
2023-01-11T04:01:45.155Z,9.38
2023-01-11T04:02:45.102Z,9.38
2023-01-11T04:03:45.087Z,9.38
2023-01-11T04:04:45.084Z,9.38
2023-01-11T04:05:45.080Z,9.38
2023-01-11T04:06:45.129Z,9.40
2023-01-11T04:07:45.041Z,9.40
2023-01-11T04:08:45.036Z,9.40
2023-01-11T04:09:45.023Z,9.41
2023-01-11T04:10:45.014Z,9.41
2023-01-11T04:11:45.021Z,9.44
2023-01-11T04:12:44.991Z,9.45
2023-01-11T04:13:44.977Z,9.44
2023-01-11T04:14:44.968Z,9.44
2023-01-11T04:15:44.973Z,9.45
2023-01-11T04:16:44.963Z,9.45
2023-01-11T04:17:44.938Z,9.42
2023-01-11T04:18:44.926Z,9.44
2023-01-11T04:19:44.910Z,9.45
2023-01-11T04:20:44.912Z,9.44
2023-01-11T04:21:44.913Z,9.42
2023-01-11T04:22:44.881Z,9.44
2023-01-11T04:23:44.864Z,9.44
2023-01-11T04:24:44.862Z,9.44
2023-01-11T04:25:44.849Z,9.42
2023-01-11T04:26:44.855Z,9.42
2023-01-11T04:27:44.822Z,9.44
2023-01-11T04:28:44.821Z,9.45
2023-01-11T04:29:44.800Z,9.48
2023-01-11T04:30:44.801Z,9.48
2023-01-11T04:31:44.812Z,9.45
2023-01-11T04:32:44.796Z,9.50
2023-01-11T04:33:44.760Z,9.49
2023-01-11T04:34:44.752Z,9.45
2023-01-11T04:35:44.759Z,9.49
2023-01-11T04:36:44.739Z,9.50
2023-01-11T04:37:44.713Z,9.50
2023-01-11T04:38:44.707Z,9.50
2023-01-11T04:39:44.694Z,9.48
2023-01-11T04:40:44.687Z,9.49
2023-01-11T04:41:44.684Z,9.53
2023-01-11T04:42:44.667Z,9.56
2023-01-11T04:43:44.647Z,9.56
2023-01-11T04:44:44.645Z,9.55
2023-01-11T04:45:44.678Z,9.56
2023-01-11T04:46:44.629Z,9.58
2023-01-11T04:47:44.603Z,9.55
2023-01-11T04:48:44.603Z,9.56
2023-01-11T04:49:44.597Z,9.53
2023-01-11T04:50:44.604Z,9.55
2023-01-11T04:51:44.573Z,9.58
2023-01-11T04:52:44.564Z,9.59
2023-01-11T04:53:44.540Z,9.62
2023-01-11T04:54:44.526Z,9.60
2023-01-11T04:55:44.523Z,9.59
2023-01-11T04:56:44.529Z,9.60
2023-01-11T04:57:44.494Z,9.59
2023-01-11T04:58:44.490Z,9.60
2023-01-11T04:59:44.469Z,9.60
2023-01-11T05:00:44.499Z,9.62
2023-01-11T05:01:44.472Z,9.62
2023-01-11T05:02:44.447Z,9.60
2023-01-11T05:03:44.474Z,9.60
2023-01-11T05:04:44.457Z,9.59
2023-01-11T05:05:44.407Z,9.58
2023-01-11T05:06:44.483Z,9.60
2023-01-11T05:07:44.407Z,9.60
2023-01-11T05:08:44.395Z,9.59
2023-01-11T05:09:44.365Z,9.56
2023-01-11T05:10:44.358Z,9.56
2023-01-11T05:11:44.344Z,9.58
2023-01-11T05:12:44.342Z,9.58
2023-01-11T05:13:44.326Z,9.60
2023-01-11T05:14:44.317Z,9.59
2023-01-11T05:15:44.301Z,9.58
2023-01-11T05:16:44.370Z,9.59
2023-01-11T05:17:44.287Z,9.59
2023-01-11T05:18:44.272Z,9.60
2023-01-11T05:19:44.261Z,9.60
2023-01-11T05:20:44.243Z,9.62
2023-01-11T05:21:44.238Z,9.60
2023-01-11T05:22:44.232Z,9.62
2023-01-11T05:23:44.213Z,9.60
2023-01-11T05:24:44.227Z,9.62
2023-01-11T05:25:44.190Z,9.62
2023-01-11T05:26:44.174Z,9.60
2023-01-11T05:27:44.181Z,9.62
2023-01-11T05:28:44.157Z,9.63
2023-01-11T05:29:44.153Z,9.63
2023-01-11T05:30:44.135Z,9.62
2023-01-11T05:31:44.227Z,9.62
2023-01-11T05:32:44.144Z,9.60
2023-01-11T05:33:44.108Z,9.63
2023-01-11T05:34:44.093Z,9.62
2023-01-11T05:35:44.082Z,9.63
2023-01-11T05:36:44.085Z,9.62
2023-01-11T05:37:44.069Z,9.63
2023-01-11T05:38:44.044Z,9.63
2023-01-11T05:39:44.039Z,9.62
2023-01-11T05:40:44.029Z,9.60
2023-01-11T05:41:44.018Z,9.63
2023-01-11T05:42:44.011Z,9.65
2023-01-11T05:43:44.006Z,9.65
2023-01-11T05:44:43.978Z,9.65
2023-01-11T05:45:43.994Z,9.63
2023-01-11T05:46:43.993Z,9.63
2023-01-11T05:47:43.968Z,9.63
2023-01-11T05:48:43.937Z,9.63
2023-01-11T05:49:43.931Z,9.65
2023-01-11T05:50:43.909Z,9.65
2023-01-11T05:51:43.919Z,9.65
2023-01-11T05:52:43.902Z,9.68
2023-01-11T05:53:43.887Z,9.68
2023-01-11T05:54:43.867Z,9.70
2023-01-11T05:55:43.876Z,9.70
2023-01-11T05:56:43.852Z,9.68
2023-01-11T05:57:43.854Z,9.68
2023-01-11T05:58:43.834Z,9.70
2023-01-11T05:59:43.814Z,9.70
2023-01-11T06:00:43.817Z,9.70
2023-01-11T06:01:49.871Z,9.71
2023-01-11T06:02:43.906Z,9.71
2023-01-11T06:03:43.773Z,9.71
2023-01-11T06:04:43.764Z,9.73
2023-01-11T06:05:45.891Z,9.75
2023-01-11T06:06:43.768Z,9.71
2023-01-11T06:07:43.750Z,9.73
2023-01-11T06:08:43.719Z,9.73
2023-01-11T06:09:43.703Z,9.74
2023-01-11T06:10:43.701Z,9.75
2023-01-11T06:11:43.681Z,9.73
2023-01-11T06:12:43.676Z,9.73
2023-01-11T06:13:43.678Z,9.74
2023-01-11T06:14:43.658Z,9.74
2023-01-11T06:15:43.638Z,9.74
2023-01-11T06:16:43.675Z,9.73
2023-01-11T06:17:43.625Z,9.73
2023-01-11T06:18:43.619Z,9.74
2023-01-11T06:19:43.595Z,9.75
2023-01-11T06:20:43.604Z,9.75
2023-01-11T06:21:43.576Z,9.74
2023-01-11T06:22:43.574Z,9.75
2023-01-11T06:23:43.562Z,9.75
2023-01-11T06:24:43.557Z,9.74
2023-01-11T06:25:45.250Z,9.75
2023-01-11T06:26:43.529Z,9.77
2023-01-11T06:27:43.506Z,9.78
2023-01-11T06:28:43.519Z,9.81
2023-01-11T06:29:43.488Z,9.80
2023-01-11T06:30:43.495Z,9.81
2023-01-11T06:31:43.464Z,9.80
2023-01-11T06:32:43.459Z,9.77
2023-01-11T06:33:43.457Z,9.81
2023-01-11T06:34:43.447Z,9.81
2023-01-11T06:35:43.426Z,9.85
2023-01-11T06:36:43.408Z,9.88
2023-01-11T06:37:43.396Z,9.89
2023-01-11T06:38:43.418Z,9.88
2023-01-11T06:39:43.376Z,9.86
2023-01-11T06:40:43.377Z,9.88
2023-01-11T06:41:43.354Z,9.88
2023-01-11T06:42:43.349Z,9.89
2023-01-11T06:43:43.343Z,9.91
2023-01-11T06:44:43.324Z,9.92
2023-01-11T06:45:43.309Z,9.91
2023-01-11T06:46:43.301Z,9.88
2023-01-11T06:47:43.289Z,9.89
2023-01-11T06:48:43.290Z,9.91
2023-01-11T06:49:43.414Z,9.89
2023-01-11T06:50:43.259Z,9.91
2023-01-11T06:51:43.241Z,9.91
2023-01-11T06:52:43.232Z,9.92
2023-01-11T06:53:43.232Z,9.91
2023-01-11T06:54:43.215Z,9.91
2023-01-11T06:55:43.197Z,9.91
2023-01-11T06:56:43.197Z,9.93
2023-01-11T06:57:43.176Z,9.92
2023-01-11T06:58:44.491Z,9.91
2023-01-11T06:59:43.155Z,9.95
2023-01-11T07:00:43.147Z,9.95
2023-01-11T07:01:43.171Z,9.92
2023-01-11T07:02:43.129Z,9.92
2023-01-11T07:03:43.123Z,9.95
2023-01-11T07:04:43.167Z,9.98
2023-01-11T07:05:43.091Z,9.98
2023-01-11T07:06:43.093Z,9.96
2023-01-11T07:07:43.074Z,9.96
2023-01-11T07:08:43.076Z,9.95
2023-01-11T07:09:43.087Z,9.96
2023-01-11T07:10:43.037Z,9.98
2023-01-11T07:11:43.023Z,9.98
2023-01-11T07:12:43.020Z,9.98
2023-01-11T07:13:43.023Z,9.99
2023-01-11T07:14:42.999Z,9.98
2023-01-11T07:15:43.037Z,9.98
2023-01-11T07:16:42.977Z,9.98
2023-01-11T07:17:42.953Z,9.98
2023-01-11T07:18:44.736Z,9.96
2023-01-11T07:19:42.940Z,9.99
2023-01-11T07:20:42.926Z,9.98
2023-01-11T07:21:42.917Z,9.98
2023-01-11T07:22:42.906Z,9.99
2023-01-11T07:23:42.889Z,9.99
2023-01-11T07:24:42.897Z,9.99
2023-01-11T07:25:42.867Z,9.99
2023-01-11T07:26:42.862Z,10.01
2023-01-11T07:27:42.847Z,9.99
2023-01-11T07:28:42.839Z,9.96
2023-01-11T07:29:42.845Z,9.99
2023-01-11T07:30:56.580Z,10.01
2023-01-11T07:31:42.875Z,10.02
2023-01-11T07:32:42.803Z,10.02
2023-01-11T07:33:42.781Z,10.01
2023-01-11T07:34:42.787Z,10.02
2023-01-11T07:35:42.759Z,10.02
2023-01-11T07:36:42.753Z,10.01
2023-01-11T07:37:42.735Z,10.02
2023-01-11T07:38:42.812Z,10.02
2023-01-11T07:39:44.085Z,10.02
2023-01-11T07:40:42.715Z,10.02
2023-01-11T07:41:42.700Z,10.02
2023-01-11T07:42:42.683Z,10.02
2023-01-11T07:43:42.670Z,10.01
2023-01-11T07:44:42.673Z,9.99
2023-01-11T07:45:46.956Z,9.99
2023-01-11T07:46:42.726Z,10.01
2023-01-11T07:47:42.634Z,10.02
2023-01-11T07:48:42.616Z,10.02
2023-01-11T07:49:42.614Z,10.04
2023-01-11T07:50:44.906Z,10.06
2023-01-11T07:51:42.583Z,10.06
2023-01-11T07:52:42.581Z,10.06
2023-01-11T07:53:42.558Z,10.07
2023-01-11T07:54:42.567Z,10.09
2023-01-11T07:55:42.536Z,10.07
2023-01-11T07:56:42.530Z,10.06
2023-01-11T07:57:42.522Z,10.07
2023-01-11T07:58:42.514Z,10.07
2023-01-11T07:59:42.527Z,10.09
2023-01-11T08:00:42.499Z,10.09
2023-01-11T08:01:42.470Z,10.06
2023-01-11T08:02:42.508Z,10.10
2023-01-11T08:03:42.592Z,10.11
2023-01-11T08:04:42.451Z,10.14
2023-01-11T08:05:42.430Z,10.16
2023-01-11T08:06:42.417Z,10.14
2023-01-11T08:07:42.403Z,10.16
2023-01-11T08:08:42.395Z,10.16
2023-01-11T08:09:42.392Z,10.16
2023-01-11T08:10:42.423Z,10.18
2023-01-11T08:11:42.359Z,10.17
2023-01-11T08:12:42.359Z,10.17
2023-01-11T08:13:42.344Z,10.22
2023-01-11T08:14:42.341Z,10.24
2023-01-11T08:15:42.609Z,10.24
2023-01-11T08:16:42.309Z,10.25
2023-01-11T08:17:42.292Z,10.24
2023-01-11T08:18:42.285Z,10.24
2023-01-11T08:19:42.286Z,10.25
2023-01-11T08:20:42.286Z,10.24
2023-01-11T08:21:42.260Z,10.24
2023-01-11T08:22:42.242Z,10.28
2023-01-11T08:23:42.233Z,10.31
2023-01-11T08:24:42.248Z,10.29
2023-01-11T08:25:42.202Z,10.29
2023-01-11T08:26:42.219Z,10.31
2023-01-11T08:27:42.179Z,10.32
2023-01-11T08:28:42.175Z,10.32
2023-01-11T08:29:42.160Z,10.32
2023-01-11T08:30:42.204Z,10.32
2023-01-11T08:31:42.136Z,10.34
2023-01-11T08:32:42.131Z,10.36
2023-01-11T08:33:42.121Z,10.36
2023-01-11T08:34:42.118Z,10.35
2023-01-11T08:35:42.103Z,10.36
2023-01-11T08:36:42.083Z,10.38
2023-01-11T08:37:42.074Z,10.35
2023-01-11T08:38:42.064Z,10.34
2023-01-11T08:39:42.049Z,10.36
2023-01-11T08:40:42.052Z,10.39
2023-01-11T08:41:42.029Z,10.39
2023-01-11T08:42:42.025Z,10.38
2023-01-11T08:43:42.006Z,10.36
2023-01-11T08:44:41.997Z,10.36
2023-01-11T08:45:42.000Z,10.36
2023-01-11T08:46:42.013Z,10.39
2023-01-11T08:47:41.958Z,10.38
2023-01-11T08:48:41.951Z,10.39
2023-01-11T08:49:41.942Z,10.43
2023-01-11T08:50:41.943Z,10.44
2023-01-11T08:51:41.925Z,10.44
2023-01-11T08:52:41.912Z,10.44
2023-01-11T08:53:41.899Z,10.43
2023-01-11T08:54:41.891Z,10.43
2023-01-11T08:55:41.889Z,10.42
2023-01-11T08:56:41.869Z,10.43
2023-01-11T08:57:41.850Z,10.43
2023-01-11T08:58:41.852Z,10.46
2023-01-11T08:59:41.844Z,10.47
2023-01-11T09:00:41.832Z,10.46
2023-01-11T09:01:41.853Z,10.46
2023-01-11T09:02:41.849Z,10.44
2023-01-11T09:03:41.787Z,10.46
2023-01-11T09:04:41.775Z,10.47
2023-01-11T09:05:41.784Z,10.46
2023-01-11T09:06:41.750Z,10.49
2023-01-11T09:07:41.751Z,10.47
2023-01-11T09:08:41.730Z,10.51
2023-01-11T09:09:41.739Z,10.52
2023-01-11T09:10:41.722Z,10.49
2023-01-11T09:11:41.703Z,10.51
2023-01-11T09:12:41.693Z,10.54
2023-01-11T09:13:41.678Z,10.52
2023-01-11T09:14:41.669Z,10.52
2023-01-11T09:15:41.707Z,10.54
2023-01-11T09:16:41.641Z,10.55
2023-01-11T09:17:41.635Z,10.54
2023-01-11T09:18:41.619Z,10.55
2023-01-11T09:19:41.621Z,10.58
2023-01-11T09:20:41.607Z,10.57
2023-01-11T09:21:41.596Z,10.55
2023-01-11T09:22:41.590Z,10.55
2023-01-11T09:23:41.569Z,10.57
2023-01-11T09:24:41.565Z,10.55
2023-01-11T09:25:41.562Z,10.55
2023-01-11T09:26:41.717Z,10.57
2023-01-11T09:27:41.537Z,10.57
2023-01-11T09:28:41.512Z,10.58
2023-01-11T09:29:41.666Z,10.62
2023-01-11T09:30:41.499Z,10.60
2023-01-11T09:31:41.557Z,10.62
2023-01-11T09:32:41.477Z,10.63
2023-01-11T09:33:41.470Z,10.60
2023-01-11T09:34:41.448Z,10.62
2023-01-11T09:35:41.448Z,10.62
2023-01-11T09:36:41.422Z,10.62
2023-01-11T09:37:41.413Z,10.63
2023-01-11T09:38:41.405Z,10.65
2023-01-11T09:39:41.406Z,10.66
2023-01-11T09:40:41.393Z,10.68
2023-01-11T09:41:41.376Z,10.69
2023-01-11T09:42:41.361Z,10.68
2023-01-11T09:43:41.351Z,10.68
2023-01-11T09:44:41.334Z,10.65
2023-01-11T09:45:41.332Z,10.65
2023-01-11T09:46:41.370Z,10.68
2023-01-11T09:47:41.345Z,10.69
2023-01-11T09:48:41.289Z,10.69
2023-01-11T09:49:41.289Z,10.69
2023-01-11T09:50:41.281Z,10.68
2023-01-11T09:51:41.281Z,10.68
2023-01-11T09:52:41.262Z,10.69
2023-01-11T09:53:41.241Z,10.70
2023-01-11T09:54:41.226Z,10.72
2023-01-11T09:55:41.218Z,10.72
2023-01-11T09:56:41.216Z,10.72
2023-01-11T09:57:41.238Z,10.75
2023-01-11T09:58:41.186Z,10.73
2023-01-11T09:59:41.181Z,10.80
2023-01-11T10:00:41.196Z,10.81
2023-01-11T10:01:41.162Z,10.81
2023-01-11T10:02:41.139Z,10.83
2023-01-11T10:03:41.133Z,10.83
2023-01-11T10:04:41.146Z,10.78
2023-01-11T10:05:41.127Z,10.76
2023-01-11T10:06:41.119Z,10.78
2023-01-11T10:07:41.093Z,10.78
2023-01-11T10:18:21.123Z,10.78
2023-01-11T10:18:52.968Z,10.75
2023-01-11T10:19:33.409Z,10.70
2023-01-11T10:19:41.750Z,10.65
2023-01-11T10:20:38.756Z,10.65
2023-01-11T10:21:38.712Z,10.63
2023-01-11T10:22:38.670Z,10.62
2023-01-11T10:23:38.669Z,10.63
2023-01-11T10:24:38.653Z,10.65
2023-01-11T10:25:38.663Z,10.66
2023-01-11T10:26:38.685Z,10.66
2023-01-11T10:27:38.690Z,10.65
2023-01-11T10:28:38.605Z,10.62
2023-01-11T10:29:38.630Z,10.60
2023-01-11T10:30:39.946Z,10.60
2023-01-11T10:31:38.623Z,10.57
2023-01-11T10:32:38.573Z,10.57
2023-01-11T10:33:38.561Z,10.57
2023-01-11T10:34:38.545Z,10.57
2023-01-11T10:35:38.549Z,10.58
2023-01-11T10:36:38.524Z,10.57
2023-01-11T10:37:38.523Z,10.57
2023-01-11T10:38:38.503Z,10.55
2023-01-11T10:39:38.505Z,10.54
2023-01-11T10:40:38.485Z,10.54
2023-01-11T10:41:38.520Z,10.54
2023-01-11T10:42:38.475Z,10.51
2023-01-11T10:43:38.455Z,10.54
2023-01-11T10:44:38.463Z,10.52
2023-01-11T10:45:38.536Z,10.54
2023-01-11T10:46:38.413Z,10.52
2023-01-11T10:47:38.414Z,10.52
2023-01-11T10:48:38.393Z,10.51
2023-01-11T10:49:38.394Z,10.52
2023-01-11T10:50:38.365Z,10.51
2023-01-11T10:51:38.361Z,10.47
2023-01-11T10:52:38.364Z,10.43
2023-01-11T10:53:38.347Z,10.43
2023-01-11T10:54:38.329Z,10.46
2023-01-11T10:55:38.354Z,10.44
2023-01-11T10:56:42.883Z,10.43
2023-01-11T10:57:38.315Z,10.43
2023-01-11T10:58:38.288Z,10.47
2023-01-11T10:59:38.313Z,10.49
2023-01-11T11:00:38.330Z,10.44
2023-01-11T11:01:38.250Z,10.43
2023-01-11T11:02:38.302Z,10.44
2023-01-11T11:03:38.236Z,10.43
2023-01-11T11:04:38.215Z,10.42
2023-01-11T11:05:38.206Z,10.38
2023-01-11T11:06:38.200Z,10.36
2023-01-11T11:07:38.195Z,10.36
2023-01-11T11:08:38.168Z,10.35
2023-01-11T11:09:38.164Z,10.35
2023-01-11T11:10:38.157Z,10.35
2023-01-11T11:11:38.140Z,10.32
2023-01-11T11:12:38.136Z,10.31
2023-01-11T11:13:38.125Z,10.31
2023-01-11T11:14:38.112Z,10.34
2023-01-11T11:15:38.096Z,10.34
2023-01-11T11:16:38.105Z,10.31
2023-01-11T11:17:38.090Z,10.31
2023-01-11T11:18:38.062Z,10.31
2023-01-11T11:19:38.065Z,10.31
2023-01-11T11:20:38.037Z,10.34
2023-01-11T11:21:38.059Z,10.32
2023-01-11T11:22:38.030Z,10.34
2023-01-11T11:23:38.015Z,10.35
2023-01-11T11:24:38.021Z,10.35
2023-01-11T11:25:38.002Z,10.34
2023-01-11T11:26:38.000Z,10.36
2023-01-11T11:27:37.975Z,10.38
2023-01-11T11:28:37.952Z,10.39
2023-01-11T11:29:37.948Z,10.42
2023-01-11T11:30:37.950Z,10.42
2023-01-11T11:31:37.984Z,10.47
2023-01-11T11:32:37.914Z,10.47
2023-01-11T11:33:37.925Z,10.47
2023-01-11T11:34:37.914Z,10.46
2023-01-11T11:35:37.877Z,10.47
2023-01-11T11:36:37.876Z,10.49
2023-01-11T11:37:37.870Z,10.44
2023-01-11T11:38:37.840Z,10.44
2023-01-11T11:39:37.837Z,10.43
2023-01-11T11:40:37.836Z,10.44
2023-01-11T11:41:37.815Z,10.42
2023-01-11T11:42:37.810Z,10.42
2023-01-11T11:43:37.803Z,10.42
2023-01-11T11:44:37.772Z,10.43
2023-01-11T11:45:37.869Z,10.44
2023-01-11T11:46:37.753Z,10.47
2023-01-11T11:47:37.755Z,10.43
2023-01-11T11:48:37.730Z,10.44
2023-01-11T11:49:37.728Z,10.49
2023-01-11T11:50:44.928Z,10.44
2023-01-11T11:51:37.714Z,10.47
2023-01-11T11:52:37.704Z,10.49
2023-01-11T11:53:37.682Z,10.44
2023-01-11T11:54:37.667Z,10.46
2023-01-11T11:55:37.687Z,10.47
2023-01-11T11:56:37.643Z,10.46
2023-01-11T11:57:37.640Z,10.44
2023-01-11T11:58:37.628Z,10.42
2023-01-11T11:59:37.614Z,10.36
2023-01-11T12:00:37.599Z,10.34
2023-01-11T12:01:37.610Z,10.32
2023-01-11T12:02:37.597Z,10.29
2023-01-11T12:03:37.581Z,10.20
2023-01-11T12:04:37.577Z,10.18
2023-01-11T12:05:37.551Z,10.17
2023-01-11T12:06:37.537Z,10.16
2023-01-11T12:07:49.873Z,10.14
2023-01-11T12:08:37.539Z,10.14
2023-01-11T12:09:37.506Z,10.14
2023-01-11T12:10:37.513Z,10.13
2023-01-11T12:11:37.476Z,10.13
2023-01-11T12:12:37.472Z,10.13
2023-01-11T12:13:37.475Z,10.14
2023-01-11T12:14:37.454Z,10.16
2023-01-11T12:15:37.443Z,10.16
2023-01-11T12:16:37.468Z,10.16
2023-01-11T12:17:37.416Z,10.24
2023-01-11T12:18:37.422Z,10.34
2023-01-11T12:19:37.390Z,10.36
2023-01-11T12:20:37.387Z,10.39
2023-01-11T12:21:37.367Z,10.44
2023-01-11T12:22:37.359Z,10.49
2023-01-11T12:23:37.357Z,10.49
2023-01-11T12:24:37.340Z,10.52
2023-01-11T12:25:37.361Z,10.58
2023-01-11T12:26:37.421Z,10.62
2023-01-11T12:27:37.309Z,10.60
2023-01-11T12:28:37.311Z,10.57
2023-01-11T12:29:37.279Z,10.52
2023-01-11T12:30:37.296Z,10.46
2023-01-11T12:31:37.256Z,10.43
2023-01-11T12:32:37.254Z,10.39
2023-01-11T12:33:37.265Z,10.39
2023-01-11T12:34:37.228Z,10.36
2023-01-11T12:35:37.221Z,10.36
2023-01-11T12:36:37.985Z,10.36
2023-01-11T12:37:37.189Z,10.34
2023-01-11T12:38:37.199Z,10.31
2023-01-11T12:39:37.168Z,10.31
2023-01-11T12:40:37.165Z,10.31
2023-01-11T12:41:37.145Z,10.32
2023-01-11T12:42:37.146Z,10.31
2023-01-11T12:43:37.160Z,10.29
2023-01-11T12:44:37.122Z,10.28
2023-01-11T12:45:37.103Z,10.24
2023-01-11T12:46:37.109Z,10.25
2023-01-11T12:47:38.562Z,10.24
2023-01-11T12:48:37.124Z,10.20
2023-01-11T12:49:37.072Z,10.22
2023-01-11T12:50:37.053Z,10.24
2023-01-11T12:51:37.046Z,10.25
2023-01-11T12:52:37.032Z,10.24
2023-01-11T12:53:37.064Z,10.25
2023-01-11T12:54:37.007Z,10.24
2023-01-11T12:55:37.005Z,10.22
2023-01-11T12:56:36.986Z,10.26
2023-01-11T12:57:36.971Z,10.28
2023-01-11T12:58:36.981Z,10.25
2023-01-11T12:59:36.954Z,10.25
2023-01-11T13:00:36.945Z,10.26
2023-01-11T13:01:37.043Z,10.26
2023-01-11T13:02:36.999Z,10.29
2023-01-11T13:03:36.918Z,10.24
2023-01-11T13:04:36.934Z,10.22
2023-01-11T13:05:36.884Z,10.16
2023-01-11T13:06:36.876Z,10.10
2023-01-11T13:07:36.863Z,10.02
2023-01-11T13:08:36.869Z,9.99
2023-01-11T13:09:36.840Z,9.95
2023-01-11T13:10:36.850Z,9.96
2023-01-11T13:11:36.831Z,9.98
2023-01-11T13:12:36.827Z,10.01
2023-01-11T13:13:36.812Z,9.98
2023-01-11T13:14:36.801Z,9.96
2023-01-11T13:15:36.777Z,9.95